Time;durP1;ratioP1;P1;durP2;ratioP2;P2;SDS_P1;SDS_P2;PMS_P1;PMS_P2;Temp;Humidity;BMP_temperature;BMP_pressure;BME280_temperature;BME280_humidity;BME280_pressure;Samples;Min_cycle;Max_cycle;Signal;HPM_P1;HPM_P2
2023/06/20 00:01:12;;;;;;;;;;;;;;;21.52;nan;99967.34;5067211;28;19916;-79
2023/06/20 00:03:37;;;;;;;;;;;;;;;21.54;nan;99956.34;5045042;28;19924;-79
2023/06/20 00:06:02;;;;;;;;;;;;;;;21.47;nan;99963.72;5054622;28;20011;-80
2023/06/20 00:08:28;;;;;;;;;;;;;;;21.42;nan;99967.13;5065451;28;19996;-80
2023/06/20 00:10:53;;;;;;;;;;;;;;;21.36;nan;99971.56;5063604;28;19966;-80
2023/06/20 00:13:18;;;;;;;;;;;;;;;21.37;nan;99975.88;5072510;28;19920;-80
2023/06/20 00:15:44;;;;;;;;;;;;;;;21.36;nan;99985.00;5055493;28;20400;-79
2023/06/20 00:18:09;;;;;;;;;;;;;;;21.35;nan;99993.31;5071048;28;19912;-80
2023/06/20 00:20:35;;;;;;;;;;;;;;;21.37;nan;99996.59;5061641;28;19913;-79
2023/06/20 00:23:02;;;;;;;;;;;;;;;21.38;nan;100020.56;5054147;28;19913;-80
2023/06/20 00:25:27;;;;;;;;;;;;;;;21.37;nan;100045.00;5061933;28;19928;-78
2023/06/20 00:27:52;;;;;;;;;;;;;;;21.35;nan;100047.09;5052775;28;19999;-77
2023/06/20 00:30:17;;;;;;;;;;;;;;;21.29;nan;100058.81;5070498;28;19912;-80
2023/06/20 00:32:43;;;;;;;;;;;;;;;21.21;nan;100057.25;5071889;28;19953;-78
2023/06/20 00:35:08;;;;;;;;;;;;;;;21.12;nan;100054.13;5054181;28;19913;-80
2023/06/20 00:37:36;;;;;;;;;;;;;;;21.05;nan;100058.78;5072659;28;19916;-79
2023/06/20 00:40:01;;;;;;;;;;;;;;;21.03;nan;100077.00;5064689;28;19913;-79
2023/06/20 00:42:26;;;;;;;;;;;;;;;21.00;nan;100082.88;5055752;28;20263;-79
2023/06/20 00:44:52;;;;;;;;;;;;;;;21.02;nan;100069.16;5053375;28;19912;-78
2023/06/20 00:47:18;;;;;;;;;;;;;;;21.00;nan;100053.28;5063637;28;19916;-80
2023/06/20 00:49:47;;;;;;;;;;;;;;;20.98;nan;100047.31;5057215;28;20296;-80
2023/06/20 00:52:22;;;;;;;;;;;;;;;20.92;nan;100043.69;5070497;28;19965;-80
2023/06/20 00:54:48;;;;;;;;;;;;;;;20.87;nan;100038.19;5042765;28;20278;-80
2023/06/20 00:57:14;;;;;;;;;;;;;;;20.82;nan;100038.06;5066848;28;19931;-81
2023/06/20 00:59:49;;;;;;;;;;;;;;;20.77;nan;100013.75;5054999;28;19943;-80
2023/06/20 01:02:15;;;;;;;;;;;;;;;20.76;nan;99993.28;5068016;28;20460;-81
2023/06/20 01:04:41;;;;;;;;;;;;;;;20.67;nan;99986.66;5066297;28;19923;-81
2023/06/20 01:07:12;;;;;;;;;;;;;;;20.53;nan;99981.44;5046969;28;19966;-81
2023/06/20 01:09:59;;;;;;;;;;;;;;;20.39;nan;100006.06;5064002;28;19975;-83
2023/06/20 01:12:42;;;;;;;;;;;;;;;20.27;nan;100011.38;5069107;28;20321;-82
2023/06/20 01:15:07;;;;;;;;;;;;;;;20.21;nan;100025.69;5065992;28;19932;-83
2023/06/20 01:17:32;;;;;;;;;;;;;;;;;;5057630;28;19916;-82
2023/06/20 01:20:09;;;;;;;;;;;;;;;20.20;nan;100013.34;5044564;28;19916;-82
2023/06/20 01:22:49;;;;;;;;;;;;;;;20.20;nan;100002.59;5069475;28;19920;-84
2023/06/20 01:25:20;;;;;;;;;;;;;;;20.21;nan;100004.22;5072323;28;20054;-83
2023/06/20 01:27:47;;;;;;;;;;;;;;;;;;5047553;28;19916;-83
2023/06/20 01:30:16;;;;;;;;;;;;;;;20.24;nan;100025.28;5073774;28;19912;-82
2023/06/20 01:32:46;;;;;;;;;;;;;;;20.25;nan;100016.97;5040264;28;20015;-82
2023/06/20 01:35:14;;;;;;;;;;;;;;;20.30;nan;100002.88;5062379;28;19917;-83
2023/06/20 01:37:41;;;;;;;;;;;;;;;20.31;nan;100009.88;5052658;28;19919;-83
2023/06/20 01:40:08;;;;;;;;;;;;;;;20.33;nan;100013.97;5074379;28;19995;-83
2023/06/20 01:42:34;;;;;;;;;;;;;;;20.27;nan;100008.69;5062739;28;20369;-83
2023/06/20 01:45:01;;;;;;;;;;;;;;;20.27;nan;100003.31;5056666;28;19919;-83
2023/06/20 01:47:27;;;;;;;;;;;;;;;20.28;nan;99996.91;5072618;28;20321;-85
2023/06/20 01:49:55;;;;;;;;;;;;;;;20.22;nan;99987.09;5057835;28;19917;-83
2023/06/20 01:52:22;;;;;;;;;;;;;;;20.06;nan;99978.63;5054281;28;19995;-82
2023/06/20 01:54:51;;;;;;;;;;;;;;;20.06;nan;99980.47;5061155;28;19979;-84
2023/06/20 01:57:17;;;;;;;;;;;;;;;20.08;nan;100006.06;5070117;28;19916;-84
2023/06/20 01:59:45;;;;;;;;;;;;;;;20.09;nan;99985.38;5062797;28;19982;-83
2023/06/20 02:02:16;;;;;;;;;;;;;;;20.13;nan;99987.41;5036743;28;20090;-83
2023/06/20 02:04:44;;;;;;;;;;;;;;;20.13;nan;99979.34;5066655;28;19995;-81
2023/06/20 02:07:14;;;;;;;;;;;;;;;20.12;nan;99984.97;5056424;28;19917;-82
2023/06/20 02:09:44;;;;;;;;;;;;;;;20.12;nan;99968.84;5035243;28;19917;-82
2023/06/20 02:12:13;;;;;;;;;;;;;;;20.12;nan;99975.03;5062622;28;19977;-80
2023/06/20 02:14:38;;;;;;;;;;;;;;;20.17;nan;99976.22;5040672;28;19917;-83
2023/06/20 02:17:04;;;;;;;;;;;;;;;20.16;nan;99978.06;5056629;28;19917;-82
2023/06/20 02:19:32;;;;;;;;;;;;;;;20.19;nan;99964.22;5048508;28;20302;-84
2023/06/20 02:21:58;;;;;;;;;;;;;;;20.23;nan;99970.72;5077215;28;19923;-83
2023/06/20 02:24:26;;;;;;;;;;;;;;;20.25;nan;99965.97;5043363;28;19921;-84
2023/06/20 02:26:56;;;;;;;;;;;;;;;20.28;nan;99970.06;5020149;28;19924;-83
2023/06/20 02:29:24;;;;;;;;;;;;;;;20.29;nan;99967.16;5042086;28;19980;-83
2023/06/20 02:31:51;;;;;;;;;;;;;;;20.28;nan;99968.19;5064327;28;19926;-83
2023/06/20 02:34:21;;;;;;;;;;;;;;;20.24;nan;99961.66;5045259;28;20392;-83
2023/06/20 02:36:50;;;;;;;;;;;;;;;20.19;nan;99949.94;5045931;28;19972;-84
2023/06/20 02:39:15;;;;;;;;;;;;;;;20.14;nan;99959.53;5068054;28;19969;-82
2023/06/20 02:41:41;;;;;;;;;;;;;;;20.08;nan;99957.75;5063003;28;19901;-83
2023/06/20 02:44:07;;;;;;;;;;;;;;;20.05;nan;99947.47;5034541;28;19970;-83
2023/06/20 02:46:47;;;;;;;;;;;;;;;20.04;nan;99955.72;5076388;28;19959;-83
2023/06/20 02:49:23;;;;;;;;;;;;;;;20.00;nan;99954.53;5075320;28;19916;-83
2023/06/20 02:51:54;;;;;;;;;;;;;;;19.90;nan;99960.47;5078199;28;19917;-83
2023/06/20 02:54:24;;;;;;;;;;;;;;;19.78;nan;99975.69;5047096;28;19954;-83
2023/06/20 02:56:53;;;;;;;;;;;;;;;19.67;nan;99971.88;5074822;28;19999;-83
2023/06/20 02:59:21;;;;;;;;;;;;;;;19.57;nan;99977.78;5045558;28;19975;-83
2023/06/20 03:01:49;;;;;;;;;;;;;;;19.47;nan;99983.66;5050462;28;19917;-83
2023/06/20 03:04:17;;;;;;;;;;;;;;;;;;5064268;28;19917;-83
2023/06/20 03:06:42;;;;;;;;;;;;;;;;;;5067459;28;19916;-83
2023/06/20 03:09:11;;;;;;;;;;;;;;;19.44;nan;99983.28;5061705;28;19916;-82
2023/06/20 03:11:37;;;;;;;;;;;;;;;19.39;nan;99983.13;5058428;28;19921;-84
2023/06/20 03:14:03;;;;;;;;;;;;;;;19.39;nan;100001.91;5073883;28;19916;-82
2023/06/20 03:16:30;;;;;;;;;;;;;;;19.38;nan;99997.56;5063731;28;19921;-81
2023/06/20 03:19:00;;;;;;;;;;;;;;;19.38;nan;100000.25;5065710;28;19916;-83
2023/06/20 03:21:27;;;;;;;;;;;;;;;19.40;nan;100001.69;5052314;28;20294;-83
2023/06/20 03:23:58;;;;;;;;;;;;;;;19.46;nan;100013.38;5054681;28;19917;-82
2023/06/20 03:26:36;;;;;;;;;;;;;;;19.47;nan;100007.81;5031392;28;19920;-83
2023/06/20 03:29:04;;;;;;;;;;;;;;;19.49;nan;100029.81;5045226;28;20286;-83
2023/06/20 03:31:29;;;;;;;;;;;;;;;19.50;nan;100026.13;5043547;28;19917;-83
2023/06/20 03:33:59;;;;;;;;;;;;;;;19.51;nan;100022.38;5064933;28;20271;-83
2023/06/20 03:36:25;;;;;;;;;;;;;;;19.53;nan;100025.66;5068602;28;19948;-82
2023/06/20 03:38:56;;;;;;;;;;;;;;;19.55;nan;100027.31;5077736;28;19958;-84
2023/06/20 03:41:21;;;;;;;;;;;;;;;19.57;nan;100025.22;5045915;28;19948;-83
2023/06/20 03:43:46;;;;;;;;;;;;;;;19.58;nan;100027.69;5067167;28;20417;-82
2023/06/20 03:46:11;;;;;;;;;;;;;;;19.61;nan;100023.72;5073068;28;19955;-83
2023/06/20 03:48:36;;;;;;;;;;;;;;;19.60;nan;100020.22;5070704;28;19917;-84
2023/06/20 03:51:04;;;;;;;;;;;;;;;19.59;nan;100025.81;5061946;28;19948;-83
2023/06/20 03:53:29;;;;;;;;;;;;;;;19.60;nan;100025.59;5055268;28;19916;-83
2023/06/20 03:55:54;;;;;;;;;;;;;;;19.61;nan;100015.69;5061865;28;19923;-84
2023/06/20 03:58:20;;;;;;;;;;;;;;;19.60;nan;100009.50;5057554;28;19912;-83
2023/06/20 04:00:46;;;;;;;;;;;;;;;19.62;nan;100007.44;5068938;28;19923;-85
2023/06/20 04:03:11;;;;;;;;;;;;;;;19.61;nan;100015.69;5076567;28;19912;-82
2023/06/20 04:05:37;;;;;;;;;;;;;;;19.59;nan;100007.84;5048245;28;19924;-84
2023/06/20 04:08:02;;;;;;;;;;;;;;;19.60;nan;100008.69;5068218;28;20346;-83
2023/06/20 04:10:27;;;;;;;;;;;;;;;19.61;nan;100013.00;5063204;28;19935;-83
2023/06/20 04:12:53;;;;;;;;;;;;;;;19.63;nan;99998.31;5062183;28;19927;-83
2023/06/20 04:15:18;;;;;;;;;;;;;;;19.65;nan;100020.38;5065812;28;19919;-84
2023/06/20 04:17:45;;;;;;;;;;;;;;;19.68;nan;100011.91;5044395;28;19920;-83
2023/06/20 04:20:13;;;;;;;;;;;;;;;19.73;nan;100008.56;5039404;28;19995;-83
2023/06/20 04:22:44;;;;;;;;;;;;;;;19.75;nan;100011.84;5056079;28;19916;-83
2023/06/20 04:25:10;;;;;;;;;;;;;;;19.76;nan;100009.97;5064292;28;20023;-82
2023/06/20 04:27:35;;;;;;;;;;;;;;;19.76;nan;100018.00;5048649;28;20373;-83
2023/06/20 04:30:01;;;;;;;;;;;;;;;19.77;nan;100020.47;5060648;28;20382;-83
2023/06/20 04:32:26;;;;;;;;;;;;;;;19.79;nan;100022.94;5066014;28;19916;-84
2023/06/20 04:34:52;;;;;;;;;;;;;;;19.78;nan;100016.75;5066391;28;19912;-83
2023/06/20 04:37:18;;;;;;;;;;;;;;;19.82;nan;100012.56;5063441;28;20409;-82
2023/06/20 04:39:43;;;;;;;;;;;;;;;;;;5069596;28;19920;-83
2023/06/20 04:42:08;;;;;;;;;;;;;;;19.88;nan;100011.69;5070828;28;19954;-84
2023/06/20 04:44:33;;;;;;;;;;;;;;;19.93;nan;100014.50;5063059;28;20044;-82
2023/06/20 04:46:58;;;;;;;;;;;;;;;20.00;nan;100009.06;5063942;28;19920;-83
2023/06/20 04:49:24;;;;;;;;;;;;;;;20.06;nan;100002.78;5064114;28;20007;-83
2023/06/20 04:51:49;;;;;;;;;;;;;;;20.09;nan;100018.44;5071325;28;19937;-82
2023/06/20 04:54:29;;;;;;;;;;;;;;;20.08;nan;100014.09;5062867;28;19917;-84
2023/06/20 04:56:55;;;;;;;;;;;;;;;20.04;nan;100020.16;5035761;28;19925;-84
2023/06/20 04:59:23;;;;;;;;;;;;;;;20.15;nan;100011.34;5065424;28;19919;-84
2023/06/20 05:01:51;;;;;;;;;;;;;;;20.22;nan;100000.50;5043604;28;19958;-83
2023/06/20 05:04:19;;;;;;;;;;;;;;;20.23;nan;99999.44;5036177;28;19912;-83
2023/06/20 05:06:46;;;;;;;;;;;;;;;20.25;nan;100000.84;5061224;28;19913;-83
2023/06/20 05:09:11;;;;;;;;;;;;;;;20.40;nan;99992.38;5051589;28;20445;-83
2023/06/20 05:11:36;;;;;;;;;;;;;;;20.55;nan;99991.97;5060511;28;20027;-83
2023/06/20 05:14:04;;;;;;;;;;;;;;;20.65;nan;99994.13;5068794;28;19912;-84
2023/06/20 05:16:29;;;;;;;;;;;;;;;20.73;nan;100002.63;5065632;28;19934;-83
2023/06/20 05:18:55;;;;;;;;;;;;;;;20.82;nan;100008.50;5042183;28;19916;-83
2023/06/20 05:21:20;;;;;;;;;;;;;;;;;;5047216;28;20281;-81
2023/06/20 05:23:45;;;;;;;;;;;;;;;21.07;nan;100002.94;5048839;28;19990;-81
2023/06/20 05:26:10;;;;;;;;;;;;;;;21.16;nan;100008.75;5061471;28;19923;-81
2023/06/20 05:28:36;;;;;;;;;;;;;;;21.26;nan;100017.06;5036838;28;19916;-79
2023/06/20 05:31:01;;;;;;;;;;;;;;;;;;5062809;28;19912;-82
2023/06/20 05:33:26;;;;;;;;;;;;;;;21.46;nan;100016.72;5061881;28;20016;-80
2023/06/20 05:35:51;;;;;;;;;;;;;;;21.55;nan;100025.25;5044112;28;19991;-80
2023/06/20 05:38:16;;;;;;;;;;;;;;;21.65;nan;100024.66;5063938;28;19917;-79
2023/06/20 05:40:42;;;;;;;;;;;;;;;;;;5036534;28;20362;-81
2023/06/20 05:43:08;;;;;;;;;;;;;;;21.75;nan;100030.22;5050693;28;19923;-79
2023/06/20 05:45:33;;;;;;;;;;;;;;;21.80;nan;100033.03;5055092;28;19920;-79
2023/06/20 05:47:58;;;;;;;;;;;;;;;21.90;nan;100037.81;5083075;28;19963;-82
2023/06/20 05:50:25;;;;;;;;;;;;;;;22.10;nan;100037.41;5062589;28;20313;-80
2023/06/20 05:52:50;;;;;;;;;;;;;;;22.32;nan;100034.88;5058543;28;19921;-80
2023/06/20 05:55:15;;;;;;;;;;;;;;;22.63;nan;100026.28;5049473;28;19916;-81
2023/06/20 05:57:40;;;;;;;;;;;;;;;23.00;nan;100035.78;5062165;28;19924;-81
2023/06/20 06:00:12;;;;;;;;;;;;;;;23.39;nan;100033.94;5070865;28;19939;-81
2023/06/20 06:02:37;;;;;;;;;;;;;;;23.72;nan;100053.81;5070038;28;20561;-80
2023/06/20 06:05:03;;;;;;;;;;;;;;;24.01;nan;100046.38;5072989;28;20050;-80
2023/06/20 06:07:30;;;;;;;;;;;;;;;24.29;nan;100052.63;5051178;28;20286;-81
2023/06/20 06:09:55;;;;;;;;;;;;;;;24.63;nan;100045.16;5045226;28;19927;-82
2023/06/20 06:12:20;;;;;;;;;;;;;;;24.96;nan;100049.50;5038872;28;19921;-81
2023/06/20 06:14:45;;;;;;;;;;;;;;;25.23;nan;100050.53;5037648;28;20287;-81
2023/06/20 06:17:11;;;;;;;;;;;;;;;25.50;nan;100051.22;5068462;28;19925;-81
2023/06/20 06:19:36;;;;;;;;;;;;;;;25.76;nan;100059.47;5064032;28;19966;-81
2023/06/20 06:22:02;;;;;;;;;;;;;;;25.92;nan;100069.31;5042132;28;19917;-81
2023/06/20 06:24:29;;;;;;;;;;;;;;;26.20;nan;100061.84;5040601;28;19920;-81
2023/06/20 06:26:54;;;;;;;;;;;;;;;26.47;nan;100076.00;5058613;28;19917;-81
2023/06/20 06:29:19;;;;;;;;;;;;;;;26.76;nan;100082.84;5054697;28;19924;-82
2023/06/20 06:31:45;;;;;;;;;;;;;;;26.85;nan;100075.81;5059727;28;19917;-82
2023/06/20 06:34:11;;;;;;;;;;;;;;;26.96;nan;100076.59;5055815;28;19917;-82
2023/06/20 06:36:36;;;;;;;;;;;;;;;27.12;nan;100086.38;5058486;28;19936;-81
2023/06/20 06:39:02;;;;;;;;;;;;;;;27.14;nan;100075.25;5063211;28;19916;-81
2023/06/20 06:41:27;;;;;;;;;;;;;;;27.08;nan;100079.88;5032484;28;20294;-83
2023/06/20 06:43:52;;;;;;;;;;;;;;;27.17;nan;100078.22;5053413;28;19921;-81
2023/06/20 06:46:18;;;;;;;;;;;;;;;27.23;nan;100082.59;5072502;28;19920;-82
2023/06/20 06:48:43;;;;;;;;;;;;;;;27.37;nan;100082.84;5066217;28;20316;-82
2023/06/20 06:51:08;;;;;;;;;;;;;;;27.51;nan;100083.09;5056882;28;19913;-81
2023/06/20 06:53:34;;;;;;;;;;;;;;;27.42;nan;100096.41;5058427;28;20283;-82
2023/06/20 06:55:59;;;;;;;;;;;;;;;27.30;nan;100180.06;5070006;28;19917;-82
2023/06/20 06:58:24;;;;;;;;;;;;;;;27.50;nan;100195.53;5067477;28;19913;-82
2023/06/20 07:00:49;;;;;;;;;;;;;;;27.61;nan;100199.06;5060739;28;19962;-81
2023/06/20 07:03:15;;;;;;;;;;;;;;;27.73;nan;100194.16;5058708;28;19917;-80
2023/06/20 07:05:40;;;;;;;;;;;;;;;27.90;nan;100183.81;5036384;28;19917;-81
2023/06/20 07:08:05;;;;;;;;;;;;;;;28.05;nan;100191.09;5062601;28;19984;-82
2023/06/20 07:10:30;;;;;;;;;;;;;;;28.24;nan;100193.22;5064991;28;19917;-81
2023/06/20 07:12:55;;;;;;;;;;;;;;;28.36;nan;100197.28;5070506;28;20374;-81
2023/06/20 07:15:21;;;;;;;;;;;;;;;28.55;nan;100200.19;5072547;28;19923;-80
2023/06/20 07:17:46;;;;;;;;;;;;;;;28.78;nan;100196.00;5061480;28;19928;-81
2023/06/20 07:20:11;;;;;;;;;;;;;;;29.05;nan;100191.19;5065906;28;19946;-80
2023/06/20 07:22:37;;;;;;;;;;;;;;;29.10;nan;100188.47;5066604;28;19921;-80
2023/06/20 07:25:03;;;;;;;;;;;;;;;29.13;nan;100198.81;5069864;28;20517;-80
2023/06/20 07:27:28;;;;;;;;;;;;;;;28.87;nan;100185.34;5046438;28;19917;-81
2023/06/20 07:29:53;;;;;;;;;;;;;;;29.05;nan;100189.28;5067064;28;19955;-82
2023/06/20 07:32:18;;;;;;;;;;;;;;;29.21;nan;100181.84;5068241;28;19924;-81
2023/06/20 07:34:43;;;;;;;;;;;;;;;29.16;nan;100181.91;5044935;28;20279;-79
2023/06/20 07:37:09;;;;;;;;;;;;;;;29.38;nan;100179.50;5065914;28;19977;-79
2023/06/20 07:39:34;;;;;;;;;;;;;;;29.68;nan;100171.41;5071448;28;19920;-80
2023/06/20 07:41:59;;;;;;;;;;;;;;;29.72;nan;100173.22;5066001;28;19956;-80
2023/06/20 07:44:24;;;;;;;;;;;;;;;29.70;nan;100180.06;5068351;28;19920;-80
2023/06/20 07:46:49;;;;;;;;;;;;;;;29.79;nan;100181.88;5063973;28;19923;-79
2023/06/20 07:49:14;;;;;;;;;;;;;;;30.02;nan;100177.56;5068911;28;19916;-80
2023/06/20 07:51:40;;;;;;;;;;;;;;;30.29;nan;100175.38;5060547;28;20177;-79
2023/06/20 07:54:05;;;;;;;;;;;;;;;30.48;nan;100177.00;5061019;28;19917;-79
2023/06/20 07:56:31;;;;;;;;;;;;;;;30.51;nan;100172.91;5060055;28;19960;-80
2023/06/20 07:58:56;;;;;;;;;;;;;;;30.64;nan;100172.16;5070808;28;19916;-79
2023/06/20 08:01:22;;;;;;;;;;;;;;;30.85;nan;100183.63;5064136;28;19920;-80
2023/06/20 08:03:48;;;;;;;;;;;;;;;31.32;nan;100179.06;5042200;28;20508;-80
2023/06/20 08:06:13;;;;;;;;;;;;;;;31.77;nan;100192.22;5062885;28;19985;-81
2023/06/20 08:08:38;;;;;;;;;;;;;;;31.92;nan;100182.94;5069256;28;19917;-82
2023/06/20 08:11:04;;;;;;;;;;;;;;;31.99;nan;100183.38;5055562;28;19916;-81
2023/06/20 08:13:29;;;;;;;;;;;;;;;32.16;nan;100172.63;5065524;28;20295;-81
2023/06/20 08:15:54;;;;;;;;;;;;;;;32.13;nan;100180.63;5066528;28;19985;-81
2023/06/20 08:18:19;;;;;;;;;;;;;;;32.16;nan;100186.31;5058770;28;19938;-81
2023/06/20 08:20:47;;;;;;;;;;;;;;;32.24;nan;100179.31;5074265;28;19917;-81
2023/06/20 08:23:12;;;;;;;;;;;;;;;32.65;nan;100180.38;5071299;28;19916;-81
2023/06/20 08:25:37;;;;;;;;;;;;;;;33.06;nan;100177.56;5059598;28;19916;-81
2023/06/20 08:28:02;;;;;;;;;;;;;;;33.40;nan;100176.16;5058925;28;20988;-80
2023/06/20 08:30:28;;;;;;;;;;;;;;;33.45;nan;100178.75;5054561;28;19920;-80
2023/06/20 08:32:53;;;;;;;;;;;;;;;33.33;nan;100173.84;5069157;28;19916;-81
2023/06/20 08:35:18;;;;;;;;;;;;;;;33.43;nan;100178.25;5070329;28;19913;-82
2023/06/20 08:37:43;;;;;;;;;;;;;;;33.45;nan;100178.75;5068170;28;20164;-80
2023/06/20 08:40:12;;;;;;;;;;;;;;;33.74;nan;100181.03;5054077;28;19938;-80
2023/06/20 08:42:37;;;;;;;;;;;;;;;33.55;nan;100167.53;5054229;28;20099;-80
2023/06/20 08:45:03;;;;;;;;;;;;;;;33.65;nan;100173.91;5033810;28;19924;-81
2023/06/20 08:47:28;;;;;;;;;;;;;;;34.00;nan;100166.63;5064942;28;19912;-79
2023/06/20 08:49:54;;;;;;;;;;;;;;;33.99;nan;100171.31;5056550;28;19971;-80
2023/06/20 08:52:24;;;;;;;;;;;;;;;33.93;nan;100163.53;5067585;28;19916;-79
2023/06/20 08:54:49;;;;;;;;;;;;;;;34.20;nan;100155.06;5045082;28;19916;-82
2023/06/20 08:57:14;;;;;;;;;;;;;;;34.88;nan;100160.97;5061599;28;19920;-80
2023/06/20 08:59:40;;;;;;;;;;;;;;;35.26;nan;100154.81;5060815;28;19955;-80
2023/06/20 09:02:07;;;;;;;;;;;;;;;35.05;nan;100148.34;5048932;28;19919;-83
2023/06/20 09:04:32;;;;;;;;;;;;;;;35.47;nan;100151.38;5043142;28;20357;-79
2023/06/20 09:06:59;;;;;;;;;;;;;;;35.66;nan;100149.06;5054936;28;20167;-80
2023/06/20 09:09:24;;;;;;;;;;;;;;;36.04;nan;100156.50;5055547;28;19913;-81
2023/06/20 09:11:52;;;;;;;;;;;;;;;36.28;nan;100155.88;5065233;28;19924;-80
2023/06/20 09:14:17;;;;;;;;;;;;;;;36.14;nan;100145.13;5051502;28;19920;-79
2023/06/20 09:16:43;;;;;;;;;;;;;;;36.39;nan;100148.03;5061416;28;20393;-81
2023/06/20 09:19:08;;;;;;;;;;;;;;;36.63;nan;100141.88;5048577;28;19912;-83
2023/06/20 09:21:38;;;;;;;;;;;;;;;36.54;nan;100144.69;5045552;28;19935;-79
2023/06/20 09:24:04;;;;;;;;;;;;;;;36.64;nan;100145.44;5056825;28;20361;-78
2023/06/20 09:26:30;;;;;;;;;;;;;;;36.50;nan;100143.75;5071749;28;19919;-79
2023/06/20 09:29:14;;;;;;;;;;;;;;;36.47;nan;100138.91;5059875;28;19913;-78
2023/06/20 09:31:50;;;;;;;;;;;;;;;36.43;nan;100135.22;5065754;28;19980;-79
2023/06/20 09:34:19;;;;;;;;;;;;;;;36.83;nan;100143.00;5053185;28;19969;-80
2023/06/20 09:36:44;;;;;;;;;;;;;;;37.52;nan;100124.94;5043830;28;19909;-79
2023/06/20 09:39:12;;;;;;;;;;;;;;;38.07;nan;100133.84;5063686;28;19913;-79
2023/06/20 09:41:44;;;;;;;;;;;;;;;38.55;nan;100134.13;5041931;28;19913;-79
2023/06/20 09:44:10;;;;;;;;;;;;;;;38.73;nan;100129.09;5069629;28;19913;-81
2023/06/20 09:46:35;;;;;;;;;;;;;;;38.59;nan;100130.31;5061098;28;19927;-81
2023/06/20 09:49:03;;;;;;;;;;;;;;;38.26;nan;100127.72;5052295;28;19919;-83
2023/06/20 09:51:29;;;;;;;;;;;;;;;38.75;nan;100127.56;5057999;28;19913;-81
2023/06/20 09:54:03;;;;;;;;;;;;;;;39.13;nan;100131.00;5060550;28;19916;-81
2023/06/20 09:56:28;;;;;;;;;;;;;;;39.26;nan;100140.81;5066052;28;19923;-81
2023/06/20 09:58:57;;;;;;;;;;;;;;;39.30;nan;100147.25;5052832;28;19912;-84
2023/06/20 10:01:24;;;;;;;;;;;;;;;39.28;nan;100136.56;5069065;28;19976;-80
2023/06/20 10:03:50;;;;;;;;;;;;;;;39.42;nan;100138.09;5049622;28;19912;-81
2023/06/20 10:06:16;;;;;;;;;;;;;;;39.52;nan;100132.00;5059213;28;20333;-80
2023/06/20 10:08:41;;;;;;;;;;;;;;;39.73;nan;100134.50;5052768;28;20339;-80
2023/06/20 10:11:07;;;;;;;;;;;;;;;39.80;nan;100131.94;5061436;28;19912;-80
2023/06/20 10:13:33;;;;;;;;;;;;;;;39.75;nan;100126.66;5055257;28;19964;-79
2023/06/20 10:15:59;;;;;;;;;;;;;;;39.43;nan;100126.69;5050740;28;19913;-80
2023/06/20 10:18:27;;;;;;;;;;;;;;;39.89;nan;100117.91;5054757;28;20017;-80
2023/06/20 10:20:53;;;;;;;;;;;;;;;40.23;nan;100129.34;5072686;28;19916;-80
2023/06/20 10:23:20;;;;;;;;;;;;;;;40.65;nan;100125.91;5072764;28;19918;-80
2023/06/20 10:25:52;;;;;;;;;;;;;;;40.57;nan;100129.69;5074234;28;19919;-81
2023/06/20 10:28:20;;;;;;;;;;;;;;;40.95;nan;100129.69;5065599;28;19920;-81
2023/06/20 10:30:45;;;;;;;;;;;;;;;41.34;nan;100117.72;5064451;28;19916;-80
2023/06/20 10:33:11;;;;;;;;;;;;;;;40.98;nan;100117.06;5058464;28;20012;-80
2023/06/20 10:35:47;;;;;;;;;;;;;;;41.25;nan;100111.63;5068036;28;19916;-80
2023/06/20 10:38:12;;;;;;;;;;;;;;;41.37;nan;100116.97;5057488;28;20301;-80
2023/06/20 10:40:37;;;;;;;;;;;;;;;41.61;nan;100118.56;5062160;28;19913;-80
2023/06/20 10:43:14;;;;;;;;;;;;;;;41.77;nan;100119.22;5063315;28;19912;-80
2023/06/20 10:45:51;;;;;;;;;;;;;;;42.06;nan;100113.31;5058397;28;20008;-80
2023/06/20 10:48:16;;;;;;;;;;;;;;;42.03;nan;100117.66;5054497;28;19917;-80
2023/06/20 10:50:41;;;;;;;;;;;;;;;42.33;nan;100112.09;5055542;28;20395;-80
2023/06/20 10:53:07;;;;;;;;;;;;;;;42.21;nan;100102.00;5066746;28;19927;-81
2023/06/20 10:55:36;;;;;;;;;;;;;;;42.26;nan;100103.66;5064930;28;19970;-80
2023/06/20 10:58:02;;;;;;;;;;;;;;;41.96;nan;100114.78;5050010;28;19916;-81
2023/06/20 11:00:27;;;;;;;;;;;;;;;41.85;nan;100102.69;5068724;28;19916;-81
2023/06/20 11:02:53;;;;;;;;;;;;;;;42.41;nan;100102.69;5059116;28;19921;-80
2023/06/20 11:05:22;;;;;;;;;;;;;;;42.64;nan;100104.53;5060801;28;19917;-80
2023/06/20 11:07:58;;;;;;;;;;;;;;;42.52;nan;100107.56;5065405;28;19946;-80
2023/06/20 11:10:33;;;;;;;;;;;;;;;42.66;nan;100104.16;5069768;28;19938;-80
2023/06/20 11:13:01;;;;;;;;;;;;;;;43.06;nan;100097.84;5061637;28;20011;-81
2023/06/20 11:15:26;;;;;;;;;;;;;;;43.39;nan;100096.97;5065743;28;19916;-82
2023/06/20 11:17:52;;;;;;;;;;;;;;;43.84;nan;100096.91;5061305;28;19980;-81
2023/06/20 11:20:20;;;;;;;;;;;;;;;43.66;nan;100097.59;5065184;28;19916;-80
2023/06/20 11:22:46;;;;;;;;;;;;;;;43.75;nan;100093.69;5060224;28;19999;-80
2023/06/20 11:25:19;;;;;;;;;;;;;;;43.48;nan;100088.28;5063056;28;19924;-80
2023/06/20 11:27:44;;;;;;;;;;;;;;;43.50;nan;100083.13;5058064;28;19917;-80
2023/06/20 11:30:10;;;;;;;;;;;;;;;43.74;nan;100078.13;5045694;28;19923;-80
2023/06/20 11:32:35;;;;;;;;;;;;;;;44.23;nan;100085.97;5069691;28;19955;-80
2023/06/20 11:35:02;;;;;;;;;;;;;;;44.58;nan;100089.34;5069329;28;19961;-80
2023/06/20 11:37:28;;;;;;;;;;;;;;;44.24;nan;100084.00;5037122;28;19972;-80
2023/06/20 11:39:53;;;;;;;;;;;;;;;44.49;nan;100079.34;5063658;28;19966;-80
2023/06/20 11:42:19;;;;;;;;;;;;;;;44.80;nan;100082.63;5037145;28;20543;-82
2023/06/20 11:44:44;;;;;;;;;;;;;;;44.82;nan;100090.59;5040014;28;19916;-82
2023/06/20 11:47:09;;;;;;;;;;;;;;;44.99;nan;100084.25;5045947;28;19913;-81
2023/06/20 11:49:35;;;;;;;;;;;;;;;44.66;nan;100085.34;5060239;28;20012;-82
2023/06/20 11:52:00;;;;;;;;;;;;;;;44.58;nan;100083.75;5073406;28;19955;-81
2023/06/20 11:54:25;;;;;;;;;;;;;;;44.91;nan;100091.81;5065060;28;20006;-81
2023/06/20 11:56:51;;;;;;;;;;;;;;;45.04;nan;100094.22;5062955;28;19919;-81
2023/06/20 11:59:23;;;;;;;;;;;;;;;44.77;nan;100085.34;5075452;28;19921;-81
2023/06/20 12:01:48;;;;;;;;;;;;;;;44.79;nan;100078.22;5067003;28;19916;-81
2023/06/20 12:04:17;;;;;;;;;;;;;;;44.73;nan;100079.78;5065077;28;19919;-81
2023/06/20 12:06:43;;;;;;;;;;;;;;;44.35;nan;100065.31;5059182;28;20414;-80
2023/06/20 12:09:09;;;;;;;;;;;;;;;44.79;nan;100069.84;5044931;28;20011;-80
2023/06/20 12:11:38;;;;;;;;;;;;;;;45.12;nan;100056.72;5057702;28;20409;-82
2023/06/20 12:14:03;;;;;;;;;;;;;;;44.56;nan;100049.88;5037856;28;19927;-81
2023/06/20 12:16:28;;;;;;;;;;;;;;;44.04;nan;100045.28;5053355;28;20401;-82
2023/06/20 12:18:53;;;;;;;;;;;;;;;43.10;nan;100054.19;5067537;28;19913;-82
2023/06/20 12:21:19;;;;;;;;;;;;;;;42.96;nan;100031.78;5060266;28;20277;-84
2023/06/20 12:23:44;;;;;;;;;;;;;;;42.13;nan;100038.41;5058351;28;19931;-82
2023/06/20 12:26:09;;;;;;;;;;;;;;;41.51;nan;100031.16;5028433;28;20379;-81
2023/06/20 12:28:36;;;;;;;;;;;;;;;40.73;nan;100034.22;5058386;28;21797;-82
2023/06/20 12:31:01;;;;;;;;;;;;;;;40.03;nan;100028.81;5035721;28;20268;-82
2023/06/20 12:33:27;;;;;;;;;;;;;;;40.02;nan;100029.97;5033940;28;19924;-81
2023/06/20 12:35:52;;;;;;;;;;;;;;;39.64;nan;100037.84;5041315;28;19920;-82
2023/06/20 12:38:17;;;;;;;;;;;;;;;39.22;nan;100032.06;5043724;28;20275;-83
2023/06/20 12:40:44;;;;;;;;;;;;;;;39.02;nan;100032.00;5042389;28;19943;-81
2023/06/20 12:43:09;;;;;;;;;;;;;;;38.38;nan;100021.94;5055944;28;19924;-82
2023/06/20 12:45:35;;;;;;;;;;;;;;;38.06;nan;100015.47;5038078;28;19921;-80
2023/06/20 12:48:01;;;;;;;;;;;;;;;38.03;nan;100009.50;5059217;28;19923;-82
2023/06/20 12:50:26;;;;;;;;;;;;;;;37.65;nan;99998.88;5053925;28;19925;-82
2023/06/20 12:52:51;;;;;;;;;;;;;;;37.40;nan;100007.16;5046957;28;19955;-82
2023/06/20 12:55:16;;;;;;;;;;;;;;;37.39;nan;100008.28;5058339;28;19935;-81
2023/06/20 12:57:42;;;;;;;;;;;;;;;37.11;nan;100012.88;5057719;28;19916;-82
2023/06/20 13:00:08;;;;;;;;;;;;;;;37.08;nan;99997.03;5052757;28;20385;-82